Time;durP1;ratioP1;P1;durP2;ratioP2;P2;SDS_P1;SDS_P2;PMS_P1;PMS_P2;Temp;Humidity;BMP_temperature;BMP_pressure;BME280_temperature;BME280_humidity;BME280_pressure;Samples;Min_cycle;Max_cycle;Signal;HPM_P1;HPM_P2
2023/12/14 00:00:46;;;;;;;3.80;2.90;;;;;;;;;;5048244;28;20043;-82
2023/12/14 00:03:19;;;;;;;2.78;2.15;;;;;;;;;;5046136;28;20060;-79
2023/12/14 00:05:45;;;;;;;3.65;2.75;;;;;;;;;;5048507;28;20033;-79
2023/12/14 00:08:35;;;;;;;8.02;3.63;;;;;;;;;;5049119;28;20068;-82
2023/12/14 00:11:17;;;;;;;2.35;2.05;;;;;;;;;;5049355;28;20020;-82
2023/12/14 00:13:49;;;;;;;3.08;2.65;;;;;;;;;;5048327;28;20104;-79
2023/12/14 00:17:01;;;;;;;5.25;2.13;;;;;;;;;;5048677;28;20091;-81
2023/12/14 00:19:47;;;;;;;4.45;1.83;;;;;;;;;;5049395;28;20447;-80
2023/12/14 00:22:56;;;;;;;3.08;2.15;;;;;;;;;;5050335;28;20036;-82
2023/12/14 00:25:28;;;;;;;2.53;2.33;;;;;;;;;;5047804;28;20145;-81
2023/12/14 00:31:07;;;;;;;5.03;1.58;;;;;;;;;;5047124;28;20037;-81
2023/12/14 00:33:42;;;;;;;2.47;2.08;;;;;;;;;;5047194;28;20029;-80
2023/12/14 00:36:08;;;;;;;3.72;3.35;;;;;;;;;;5048678;28;20037;-79
2023/12/14 00:38:39;;;;;;;1.85;1.20;;;;;;;;;;5047852;28;20047;-80
2023/12/14 00:41:27;;;;;;;3.30;1.67;;;;;;;;;;5046703;28;20048;-80
2023/12/14 00:43:59;;;;;;;3.25;1.55;;;;;;;;;;5051052;28;20025;-79
2023/12/14 00:46:38;;;;;;;2.13;1.83;;;;;;;;;;5049061;28;20032;-80
2023/12/14 00:49:19;;;;;;;;;;;;;;;;;;;;;
2023/12/14 00:52:24;;;;;;;2.00;1.85;;;;;;;;;;5051964;28;20035;-80
2023/12/14 00:55:08;;;;;;;2.55;2.35;;;;;;;;;;5051642;28;20039;-79
2023/12/14 00:57:37;;;;;;;4.10;2.25;;;;;;;;;;5056005;28;20136;-81
2023/12/14 01:00:16;;;;;;;;;;;;;;;;;;;;;
2023/12/14 01:03:21;;;;;;;2.25;1.73;;;;;;;;;;5053133;28;20473;-81
2023/12/14 01:05:58;;;;;;;4.03;1.88;;;;;;;;;;5025584;28;20036;-79
2023/12/14 01:09:12;;;;;;;2.40;2.20;;;;;;;;;;4994236;28;20075;-81
2023/12/14 01:12:23;;;;;;;1.75;1.63;;;;;;;;;;5010108;28;20813;-83
2023/12/14 01:15:05;;;;;;;3.65;1.63;;;;;;;;;;4970155;28;20038;-80
2023/12/14 01:17:42;;;;;;;1.10;1.10;;;;;;;;;;4977303;28;20030;-80
2023/12/14 01:20:16;;;;;;;2.75;2.55;;;;;;;;;;4975383;28;20445;-78
2023/12/14 01:23:10;;;;;;;;;;;;;;;;;;;;;
2023/12/14 01:25:45;;;;;;;3.20;1.15;;;;;;;;;;5021645;28;20389;-80
2023/12/14 01:28:24;;;;;;;4.32;2.55;;;;;;;;;;5051964;28;20032;-79
2023/12/14 01:31:23;;;;;;;1.85;1.48;;;;;;;;;;5052257;28;20037;-81
2023/12/14 01:34:21;;;;;;;2.53;1.30;;;;;;;;;;5053636;28;20111;-81
2023/12/14 01:40:02;;;;;;;1.95;1.63;;;;;;;;;;5045561;28;20060;-80
2023/12/14 01:42:48;;;;;;;4.70;2.78;;;;;;;;;;5054943;28;20459;-79
2023/12/14 01:45:23;;;;;;;1.85;1.58;;;;;;;;;;5052301;28;20037;-81
2023/12/14 01:47:53;;;;;;;2.30;2.10;;;;;;;;;;5052235;28;20111;-79
2023/12/14 01:50:20;;;;;;;1.10;1.05;;;;;;;;;;5048840;28;20032;-79
2023/12/14 01:53:02;;;;;;;2.40;2.17;;;;;;;;;;5053261;28;20064;-79
2023/12/14 01:55:31;;;;;;;4.18;2.53;;;;;;;;;;5051447;28;20017;-81
2023/12/14 01:57:57;;;;;;;6.40;3.38;;;;;;;;;;5055198;28;20074;-80
2023/12/14 02:00:55;;;;;;;4.57;2.72;;;;;;;;;;5055243;28;20029;-81
2023/12/14 02:03:27;;;;;;;1.10;1.00;;;;;;;;;;5051876;28;20044;-80
2023/12/14 02:06:00;;;;;;;4.75;2.45;;;;;;;;;;5053047;28;20472;-81
2023/12/14 02:08:38;;;;;;;2.55;1.75;;;;;;;;;;5055280;28;20032;-83
2023/12/14 02:11:14;;;;;;;1.58;1.17;;;;;;;;;;5051496;28;20037;-80
2023/12/14 02:13:46;;;;;;;2.38;1.67;;;;;;;;;;5054677;28;20574;-80
2023/12/14 02:16:12;;;;;;;2.03;1.88;;;;;;;;;;5057474;28;20028;-80
2023/12/14 02:18:48;;;;;;;1.42;1.02;;;;;;;;;;5056923;28;20083;-79
2023/12/14 02:21:14;;;;;;;1.02;1.02;;;;;;;;;;5086081;28;20051;-79
2023/12/14 02:23:49;;;;;;;1.98;1.83;;;;;;;;;;5059435;28;20029;-81
2023/12/14 02:26:24;;;;;;;5.40;1.50;;;;;;;;;;5056225;28;20381;-80
2023/12/14 02:28:53;;;;;;;2.13;1.52;;;;;;;;;;5085967;27;20485;-80
2023/12/14 02:31:29;;;;;;;1.13;1.02;;;;;;;;;;5055174;28;20090;-79
2023/12/14 02:33:57;;;;;;;1.25;1.15;;;;;;;;;;5056140;28;20028;-79
2023/12/14 02:36:24;;;;;;;2.28;1.77;;;;;;;;;;5056320;28;20028;-79
2023/12/14 02:38:52;;;;;;;0.90;0.90;;;;;;;;;;5085083;28;20441;-78
2023/12/14 02:41:20;;;;;;;1.20;1.10;;;;;;;;;;5055899;28;20021;-79
2023/12/14 02:44:25;;;;;;;1.17;1.00;;;;;;;;;;5058933;28;20041;-81
2023/12/14 02:46:50;;;;;;;2.65;1.45;;;;;;;;;;5052605;28;20484;-81
2023/12/14 02:49:16;;;;;;;3.85;2.22;;;;;;;;;;5057407;28;20021;-83
2023/12/14 02:51:41;;;;;;;1.65;1.40;;;;;;;;;;5057376;28;20025;-81
2023/12/14 02:54:07;;;;;;;1.10;0.80;;;;;;;;;;5056895;28;20024;-80
2023/12/14 02:56:32;;;;;;;17.27;1.48;;;;;;;;;;5054104;28;20052;-81
2023/12/14 02:59:07;;;;;;;3.05;1.65;;;;;;;;;;5056782;28;20032;-83
2023/12/14 03:01:32;;;;;;;1.02;0.85;;;;;;;;;;5054054;28;20067;-79
2023/12/14 03:03:58;;;;;;;1.05;0.70;;;;;;;;;;5060425;28;20060;-80
2023/12/14 03:06:23;;;;;;;1.95;1.55;;;;;;;;;;5056364;28;20442;-81
2023/12/14 03:08:49;;;;;;;4.38;1.83;;;;;;;;;;5060003;28;20066;-81
2023/12/14 03:11:24;;;;;;;2.08;1.60;;;;;;;;;;5055255;28;20358;-80
2023/12/14 03:13:50;;;;;;;4.40;2.40;;;;;;;;;;5055741;28;20100;-82
2023/12/14 03:16:16;;;;;;;1.60;1.50;;;;;;;;;;5055602;28;20132;-82
2023/12/14 03:18:42;;;;;;;0.95;0.95;;;;;;;;;;5056806;28;20028;-83
2023/12/14 03:21:09;;;;;;;1.23;1.15;;;;;;;;;;5052251;28;20135;-81
2023/12/14 03:23:37;;;;;;;1.08;1.02;;;;;;;;;;5057189;28;20377;-82
2023/12/14 03:26:03;;;;;;;3.83;1.33;;;;;;;;;;5088776;28;20123;-80
2023/12/14 03:28:28;;;;;;;1.38;1.27;;;;;;;;;;5058282;28;20095;-80
2023/12/14 03:30:53;;;;;;;0.88;0.82;;;;;;;;;;5054529;28;20033;-80
2023/12/14 03:33:19;;;;;;;1.75;1.27;;;;;;;;;;5058428;28;20035;-78
2023/12/14 03:35:46;;;;;;;0.77;0.77;;;;;;;;;;5053721;28;20036;-82
2023/12/14 03:38:13;;;;;;;8.50;1.55;;;;;;;;;;5054973;28;20109;-81
2023/12/14 03:40:39;;;;;;;4.53;1.48;;;;;;;;;;5056618;28;20622;-80
2023/12/14 03:43:05;;;;;;;1.33;1.23;;;;;;;;;;5055797;28;20058;-79
2023/12/14 03:45:30;;;;;;;0.40;0.40;;;;;;;;;;5055812;28;20107;-82
2023/12/14 03:47:56;;;;;;;7.97;3.67;;;;;;;;;;5055746;28;20035;-81
2023/12/14 03:50:22;;;;;;;0.50;0.50;;;;;;;;;;5054298;28;20457;-81
2023/12/14 03:52:47;;;;;;;0.63;0.43;;;;;;;;;;5049571;28;20870;-82
2023/12/14 03:55:15;;;;;;;4.22;0.40;;;;;;;;;;5058597;28;20496;-82
2023/12/14 03:57:40;;;;;;;0.73;0.73;;;;;;;;;;5053433;28;20408;-83
2023/12/14 04:00:09;;;;;;;0.30;0.30;;;;;;;;;;5051008;28;20027;-80
2023/12/14 04:02:35;;;;;;;0.30;0.30;;;;;;;;;;5054124;28;20029;-79
2023/12/14 04:05:00;;;;;;;0.43;0.43;;;;;;;;;;5055805;28;20451;-81
2023/12/14 04:07:26;;;;;;;0.63;0.63;;;;;;;;;;5055326;28;20488;-80
2023/12/14 04:09:53;;;;;;;4.90;1.92;;;;;;;;;;5057531;28;20020;-84
2023/12/14 04:12:19;;;;;;;3.10;0.75;;;;;;;;;;5082035;28;20025;-83
2023/12/14 04:14:46;;;;;;;1.63;1.15;;;;;;;;;;5058685;28;20047;-81
2023/12/14 04:17:12;;;;;;;2.60;1.17;;;;;;;;;;5056000;28;20098;-82
2023/12/14 04:19:41;;;;;;;1.85;1.27;;;;;;;;;;5057685;28;20033;-82
2023/12/14 04:22:07;;;;;;;4.28;1.67;;;;;;;;;;5054000;28;20032;-80
2023/12/14 04:24:32;;;;;;;1.20;0.90;;;;;;;;;;5056126;28;20029;-80
2023/12/14 04:26:58;;;;;;;2.22;1.40;;;;;;;;;;5052811;28;20075;-79
2023/12/14 04:29:26;;;;;;;0.63;0.60;;;;;;;;;;5055609;28;20025;-81
2023/12/14 04:31:53;;;;;;;2.78;1.60;;;;;;;;;;5057288;28;20028;-82
2023/12/14 04:34:19;;;;;;;5.18;1.58;;;;;;;;;;5052609;28;20041;-79
2023/12/14 04:36:48;;;;;;;1.48;1.33;;;;;;;;;;5050614;28;20076;-80
2023/12/14 04:39:16;;;;;;;3.10;2.50;;;;;;;;;;5055844;28;20036;-79
2023/12/14 04:41:42;;;;;;;2.90;1.52;;;;;;;;;;5053199;28;20048;-81
2023/12/14 04:44:11;;;;;;;0.65;0.65;;;;;;;;;;5050793;28;20063;-81
2023/12/14 04:46:37;;;;;;;2.45;2.13;;;;;;;;;;5050664;28;20029;-79
2023/12/14 04:49:02;;;;;;;0.50;0.50;;;;;;;;;;5054154;28;20029;-81
2023/12/14 04:51:28;;;;;;;0.57;0.55;;;;;;;;;;5056458;28;20067;-81
2023/12/14 04:53:53;;;;;;;1.00;0.40;;;;;;;;;;5054055;28;20028;-80
2023/12/14 04:56:21;;;;;;;0.28;0.22;;;;;;;;;;5055512;28;20045;-80
2023/12/14 04:58:47;;;;;;;0.40;0.40;;;;;;;;;;5055188;28;20041;-80
2023/12/14 05:01:12;;;;;;;0.10;0.10;;;;;;;;;;5050285;28;20033;-78
2023/12/14 05:03:38;;;;;;;0.20;0.20;;;;;;;;;;5051319;28;20025;-81
2023/12/14 05:06:03;;;;;;;0.28;0.28;;;;;;;;;;5053988;28;20025;-79
2023/12/14 05:08:29;;;;;;;0.65;0.47;;;;;;;;;;5056709;28;20024;-78
2023/12/14 05:10:54;;;;;;;0.38;0.22;;;;;;;;;;5053637;28;20473;-81
2023/12/14 05:13:20;;;;;;;0.28;0.28;;;;;;;;;;5054635;28;20052;-80
2023/12/14 05:15:53;;;;;;;1.30;0.75;;;;;;;;;;5056737;28;20112;-78
2023/12/14 05:18:18;;;;;;;0.25;0.10;;;;;;;;;;5050227;28;20053;-80
2023/12/14 05:20:45;;;;;;;0.43;0.20;;;;;;;;;;5049660;28;20064;-82
2023/12/14 05:23:13;;;;;;;0.15;0.15;;;;;;;;;;5054620;28;20429;-81
2023/12/14 05:25:40;;;;;;;1.55;0.50;;;;;;;;;;5050384;28;20028;-81
2023/12/14 05:28:12;;;;;;;0.40;0.30;;;;;;;;;;5052260;28;20025;-80
2023/12/14 05:30:38;;;;;;;0.20;0.20;;;;;;;;;;5053778;28;20037;-79
2023/12/14 05:33:03;;;;;;;0.20;0.20;;;;;;;;;;5049654;28;20017;-79
2023/12/14 05:35:29;;;;;;;0.30;0.30;;;;;;;;;;5054266;28;20036;-82
2023/12/14 05:37:54;;;;;;;0.50;0.50;;;;;;;;;;5050450;28;20083;-79
2023/12/14 05:40:20;;;;;;;0.35;0.25;;;;;;;;;;5053637;28;20067;-81
2023/12/14 05:42:45;;;;;;;0.20;0.20;;;;;;;;;;5052420;28;20020;-79
2023/12/14 05:45:11;;;;;;;0.17;0.10;;;;;;;;;;5051821;28;20033;-78
2023/12/14 05:47:37;;;;;;;0.77;0.20;;;;;;;;;;5047650;28;20056;-78
2023/12/14 05:50:03;;;;;;;0.20;0.20;;;;;;;;;;5050104;28;20048;-81
2023/12/14 05:52:29;;;;;;;0.75;0.40;;;;;;;;;;5053856;28;20107;-78
2023/12/14 05:54:54;;;;;;;0.10;0.10;;;;;;;;;;5052328;28;20125;-78
2023/12/14 05:57:20;;;;;;;0.28;0.28;;;;;;;;;;5051037;28;20049;-81
2023/12/14 05:59:45;;;;;;;0.55;0.30;;;;;;;;;;5052096;28;20067;-78
2023/12/14 06:02:10;;;;;;;0.20;0.20;;;;;;;;;;5052826;28;20029;-79
2023/12/14 06:04:36;;;;;;;0.10;0.10;;;;;;;;;;5051477;28;20024;-79
2023/12/14 06:07:01;;;;;;;0.20;0.20;;;;;;;;;;5051528;28;20051;-79
2023/12/14 06:09:34;;;;;;;0.30;0.30;;;;;;;;;;5051397;28;20496;-80
2023/12/14 06:12:04;;;;;;;0.10;0.10;;;;;;;;;;5052475;28;20690;-80
2023/12/14 06:14:30;;;;;;;0.17;0.15;;;;;;;;;;5053154;28;20059;-79
2023/12/14 06:16:56;;;;;;;2.03;0.90;;;;;;;;;;5049633;28;20060;-78
2023/12/14 06:19:22;;;;;;;1.27;1.05;;;;;;;;;;5052073;28;20496;-78
2023/12/14 06:21:47;;;;;;;0.75;0.68;;;;;;;;;;5052255;28;20036;-78
2023/12/14 06:24:13;;;;;;;0.30;0.30;;;;;;;;;;5052098;28;20111;-78
2023/12/14 06:26:43;;;;;;;0.32;0.20;;;;;;;;;;5050350;28;20098;-77
2023/12/14 06:29:09;;;;;;;0.17;0.17;;;;;;;;;;5051023;28;20095;-78
2023/12/14 06:31:34;;;;;;;0.30;0.20;;;;;;;;;;5052946;28;20116;-77
2023/12/14 06:34:03;;;;;;;0.10;0.10;;;;;;;;;;5050332;28;20437;-77
2023/12/14 06:36:29;;;;;;;0.45;0.45;;;;;;;;;;5052057;28;20473;-77
2023/12/14 06:38:55;;;;;;;3.15;2.10;;;;;;;;;;5048769;28;20075;-78
2023/12/14 06:41:22;;;;;;;3.25;1.58;;;;;;;;;;5050988;28;20033;-77
2023/12/14 06:43:48;;;;;;;2.35;1.33;;;;;;;;;;5050249;28;20112;-78
2023/12/14 06:46:13;;;;;;;2.30;1.85;;;;;;;;;;5052115;28;21278;-78
2023/12/14 06:48:38;;;;;;;1.77;1.45;;;;;;;;;;5052634;28;20476;-79
2023/12/14 06:51:04;;;;;;;4.10;1.60;;;;;;;;;;5051563;28;20037;-78
2023/12/14 06:53:30;;;;;;;2.90;1.30;;;;;;;;;;5048804;28;20385;-80
2023/12/14 06:55:55;;;;;;;1.65;1.17;;;;;;;;;;5052078;28;20029;-82
2023/12/14 06:58:21;;;;;;;4.68;1.42;;;;;;;;;;5048859;28;20060;-80
2023/12/14 07:00:47;;;;;;;1.75;1.23;;;;;;;;;;5050344;28;20029;-78
2023/12/14 07:03:13;;;;;;;1.85;1.58;;;;;;;;;;5050275;28;20078;-82
2023/12/14 07:05:39;;;;;;;4.55;1.33;;;;;;;;;;5053554;28;20037;-80
2023/12/14 07:08:04;;;;;;;1.80;1.35;;;;;;;;;;5054467;28;21317;-77
2023/12/14 07:10:30;;;;;;;2.38;1.63;;;;;;;;;;5047936;28;20028;-77
2023/12/14 07:12:55;;;;;;;6.00;1.35;;;;;;;;;;5049634;28;20025;-78
2023/12/14 07:15:20;;;;;;;5.75;2.05;;;;;;;;;;5049026;28;20086;-79
2023/12/14 07:17:46;;;;;;;5.35;2.20;;;;;;;;;;5049359;28;20457;-79
2023/12/14 07:20:12;;;;;;;1.92;1.27;;;;;;;;;;5047225;28;20028;-78
2023/12/14 07:22:37;;;;;;;4.72;3.13;;;;;;;;;;5050872;28;20749;-80
2023/12/14 07:25:04;;;;;;;9.07;4.28;;;;;;;;;;5048633;28;20025;-78
2023/12/14 07:27:29;;;;;;;3.88;3.50;;;;;;;;;;5048719;28;20055;-79
2023/12/14 07:29:55;;;;;;;5.07;2.35;;;;;;;;;;5046761;28;20106;-77
2023/12/14 07:32:21;;;;;;;2.38;1.50;;;;;;;;;;5050315;28;20037;-78
2023/12/14 07:34:46;;;;;;;1.63;1.52;;;;;;;;;;5047347;28;20111;-79
2023/12/14 07:37:12;;;;;;;3.40;1.40;;;;;;;;;;5050301;28;20028;-79
2023/12/14 07:39:37;;;;;;;1.65;1.35;;;;;;;;;;5050432;28;20622;-79
2023/12/14 07:42:03;;;;;;;2.55;1.10;;;;;;;;;;5050242;28;20062;-79
2023/12/14 07:44:29;;;;;;;3.00;2.38;;;;;;;;;;5047855;28;20029;-79
2023/12/14 07:46:56;;;;;;;3.15;1.55;;;;;;;;;;5049554;28;20033;-80
2023/12/14 07:49:23;;;;;;;1.30;1.00;;;;;;;;;;5049783;28;20028;-78
2023/12/14 07:51:49;;;;;;;2.88;2.00;;;;;;;;;;5048628;28;20100;-78
2023/12/14 07:54:15;;;;;;;1.90;1.70;;;;;;;;;;5047116;28;20537;-78
2023/12/14 07:56:40;;;;;;;1.88;1.13;;;;;;;;;;5048654;28;20131;-79
2023/12/14 07:59:07;;;;;;;3.10;1.70;;;;;;;;;;5048624;28;20016;-78
2023/12/14 08:01:33;;;;;;;1.05;0.82;;;;;;;;;;5047309;28;20029;-79
2023/12/14 08:03:59;;;;;;;1.02;0.70;;;;;;;;;;5047798;28;20036;-76
2023/12/14 08:06:24;;;;;;;0.30;0.30;;;;;;;;;;5049300;28;20028;-78
2023/12/14 08:08:50;;;;;;;0.80;0.80;;;;;;;;;;5047963;28;20120;-78
2023/12/14 08:11:15;;;;;;;1.55;1.23;;;;;;;;;;5049317;28;20385;-78
2023/12/14 08:13:41;;;;;;;0.55;0.55;;;;;;;;;;5049541;28;20040;-78
2023/12/14 08:16:08;;;;;;;2.35;1.65;;;;;;;;;;5046710;28;20452;-78
2023/12/14 08:18:33;;;;;;;2.88;1.65;;;;;;;;;;5047716;28;20044;-76
2023/12/14 08:20:58;;;;;;;2.38;1.35;;;;;;;;;;5049472;28;20475;-78
2023/12/14 08:23:27;;;;;;;2.80;1.88;;;;;;;;;;5049727;28;20024;-78
2023/12/14 08:25:56;;;;;;;2.40;1.73;;;;;;;;;;5049619;28;20028;-78
2023/12/14 08:28:25;;;;;;;1.92;0.80;;;;;;;;;;5047784;28;20021;-77
2023/12/14 08:30:51;;;;;;;2.50;1.90;;;;;;;;;;5048243;28;20033;-78
2023/12/14 08:33:16;;;;;;;1.63;1.20;;;;;;;;;;5048761;28;20469;-79
2023/12/14 08:35:42;;;;;;;3.20;1.30;;;;;;;;;;5044251;28;20032;-77
2023/12/14 08:38:07;;;;;;;1.75;1.02;;;;;;;;;;5049496;28;20404;-79
2023/12/14 08:40:32;;;;;;;4.60;1.95;;;;;;;;;;5049662;28;20453;-79
2023/12/14 08:42:58;;;;;;;1.05;0.95;;;;;;;;;;5048094;28;20029;-78
2023/12/14 08:45:24;;;;;;;2.35;0.77;;;;;;;;;;5046541;28;20427;-78
2023/12/14 08:47:49;;;;;;;2.20;1.35;;;;;;;;;;5048783;28;20025;-78
2023/12/14 08:50:15;;;;;;;1.33;1.13;;;;;;;;;;5049227;28;20036;-78
2023/12/14 08:52:41;;;;;;;1.90;1.45;;;;;;;;;;5045403;28;20071;-78
2023/12/14 08:55:07;;;;;;;1.67;0.73;;;;;;;;;;5049842;28;20388;-78
2023/12/14 08:57:33;;;;;;;1.75;1.15;;;;;;;;;;5048280;28;20489;-77
2023/12/14 08:59:58;;;;;;;3.45;1.20;;;;;;;;;;5052889;28;20033;-78
2023/12/14 09:02:23;;;;;;;2.10;1.20;;;;;;;;;;5046746;28;20380;-79
2023/12/14 09:04:49;;;;;;;1.50;1.17;;;;;;;;;;5048518;28;20350;-78
2023/12/14 09:07:14;;;;;;;3.65;1.77;;;;;;;;;;5051136;28;20400;-78
2023/12/14 09:09:40;;;;;;;2.58;1.23;;;;;;;;;;5054638;28;20128;-76
2023/12/14 09:12:05;;;;;;;1.83;1.67;;;;;;;;;;5051481;28;20082;-78
2023/12/14 09:14:31;;;;;;;7.40;1.83;;;;;;;;;;5048949;28;20033;-78
2023/12/14 09:16:56;;;;;;;1.63;1.38;;;;;;;;;;5046745;28;20111;-77
2023/12/14 09:19:22;;;;;;;2.17;1.75;;;;;;;;;;5045172;28;20032;-77
2023/12/14 09:21:47;;;;;;;1.20;1.05;;;;;;;;;;5048112;28;20484;-79
2023/12/14 09:24:13;;;;;;;2.53;1.73;;;;;;;;;;5052045;28;20013;-78
2023/12/14 09:26:38;;;;;;;2.00;1.15;;;;;;;;;;5053490;28;20471;-78
2023/12/14 09:29:04;;;;;;;11.07;1.80;;;;;;;;;;5052281;28;20025;-79
2023/12/14 09:31:29;;;;;;;1.25;0.73;;;;;;;;;;5052308;28;20025;-78
2023/12/14 09:33:55;;;;;;;1.88;1.17;;;;;;;;;;5050639;28;20039;-77
2023/12/14 09:36:20;;;;;;;2.00;0.90;;;;;;;;;;5050291;28;20021;-78
2023/12/14 09:38:45;;;;;;;1.45;0.57;;;;;;;;;;5049102;28;20052;-77
2023/12/14 09:41:11;;;;;;;0.60;0.50;;;;;;;;;;5051966;28;20385;-78
2023/12/14 09:43:37;;;;;;;3.25;1.52;;;;;;;;;;5052058;28;20159;-78
2023/12/14 09:46:03;;;;;;;2.13;1.55;;;;;;;;;;5050165;28;20025;-77
2023/12/14 09:48:29;;;;;;;2.10;1.60;;;;;;;;;;5051866;28;20074;-79
2023/12/14 09:50:55;;;;;;;0.65;0.55;;;;;;;;;;5051110;28;20036;-77
2023/12/14 09:53:21;;;;;;;1.30;0.85;;;;;;;;;;5052136;28;20377;-78
2023/12/14 09:55:46;;;;;;;1.48;0.95;;;;;;;;;;5051165;28;20021;-77
2023/12/14 09:58:12;;;;;;;2.28;1.20;;;;;;;;;;5049593;28;20049;-77
2023/12/14 10:00:40;;;;;;;1.58;1.02;;;;;;;;;;5051366;28;20284;-77
2023/12/14 10:03:23;;;;;;;1.98;0.90;;;;;;;;;;5049927;28;20028;-78
2023/12/14 10:05:49;;;;;;;0.82;0.20;;;;;;;;;;5051527;28;20473;-77
2023/12/14 10:08:16;;;;;;;1.10;0.85;;;;;;;;;;5051728;28;20025;-78
2023/12/14 10:10:43;;;;;;;0.63;0.50;;;;;;;;;;5051565;28;20078;-78
2023/12/14 10:13:08;;;;;;;1.95;1.05;;;;;;;;;;5049804;28;20029;-78
2023/12/14 10:16:00;;;;;;;1.35;0.90;;;;;;;;;;5051431;28;20043;-78
2023/12/14 10:18:26;;;;;;;1.13;1.02;;;;;;;;;;5046711;28;20090;-78
2023/12/14 10:20:51;;;;;;;0.90;0.85;;;;;;;;;;5050627;28;20111;-77
2023/12/14 10:23:17;;;;;;;1.48;1.10;;;;;;;;;;5051340;28;20035;-77
2023/12/14 10:25:43;;;;;;;1.08;0.88;;;;;;;;;;5046574;28;20029;-78
2023/12/14 10:28:13;;;;;;;3.92;1.50;;;;;;;;;;5050806;28;20053;-78
2023/12/14 10:30:39;;;;;;;1.30;0.95;;;;;;;;;;5048212;28;20043;-77
2023/12/14 10:33:05;;;;;;;2.90;1.27;;;;;;;;;;5051091;28;21153;-76
2023/12/14 10:35:30;;;;;;;3.80;1.15;;;;;;;;;;5049450;28;20033;-78
2023/12/14 10:38:00;;;;;;;1.98;1.17;;;;;;;;;;5050385;28;20025;-77
2023/12/14 10:40:26;;;;;;;3.13;1.88;;;;;;;;;;5081319;28;20043;-76
2023/12/14 10:42:52;;;;;;;1.00;0.80;;;;;;;;;;5049081;28;20115;-78
2023/12/14 10:45:19;;;;;;;1.23;0.93;;;;;;;;;;5047054;28;20044;-76
2023/12/14 10:47:48;;;;;;;1.05;0.75;;;;;;;;;;5047804;28;20131;-75
2023/12/14 10:50:13;;;;;;;2.33;1.10;;;;;;;;;;5047262;28;20032;-75
2023/12/14 10:52:40;;;;;;;3.78;2.03;;;;;;;;;;5050969;28;20096;-77
2023/12/14 10:55:33;;;;;;;4.47;2.10;;;;;;;;;;5048747;28;20120;-78
2023/12/14 10:57:58;;;;;;;2.90;1.70;;;;;;;;;;5048697;28;20210;-78
2023/12/14 11:00:24;;;;;;;2.78;1.90;;;;;;;;;;5049510;28;20100;-78
2023/12/14 11:02:49;;;;;;;2.92;1.17;;;;;;;;;;5046677;28;20044;-78
2023/12/14 11:05:26;;;;;;;4.55;2.05;;;;;;;;;;5047328;28;20024;-78
2023/12/14 11:08:00;;;;;;;2.42;1.40;;;;;;;;;;5047334;28;20021;-79
2023/12/14 11:10:38;;;;;;;4.28;2.67;;;;;;;;;;5049454;28;20031;-78
2023/12/14 11:13:10;;;;;;;4.70;1.85;;;;;;;;;;5050246;28;20044;-79
2023/12/14 11:15:36;;;;;;;2.90;1.48;;;;;;;;;;5047470;28;20025;-79
2023/12/14 11:18:08;;;;;;;2.40;1.98;;;;;;;;;;5050244;28;20040;-78
2023/12/14 11:20:45;;;;;;;3.42;2.08;;;;;;;;;;5050420;28;20118;-77
2023/12/14 11:23:13;;;;;;;4.45;2.60;;;;;;;;;;5045764;28;20032;-79
2023/12/14 11:25:42;;;;;;;1.55;1.02;;;;;;;;;;5049408;28;20032;-79
2023/12/14 11:28:08;;;;;;;1.23;1.13;;;;;;;;;;5049954;28;20029;-78
2023/12/14 11:30:34;;;;;;;2.75;1.63;;;;;;;;;;5049523;28;20032;-79
2023/12/14 11:33:00;;;;;;;2.75;1.58;;;;;;;;;;5049959;28;20461;-77
2023/12/14 11:35:25;;;;;;;1.45;1.02;;;;;;;;;;5050190;28;20020;-78
2023/12/14 11:37:51;;;;;;;5.22;3.85;;;;;;;;;;5050219;28;20033;-78
2023/12/14 11:40:22;;;;;;;1.58;1.05;;;;;;;;;;5047104;28;20040;-78
2023/12/14 11:42:59;;;;;;;1.95;1.48;;;;;;;;;;5049600;28;20092;-77
2023/12/14 11:45:26;;;;;;;0.77;0.68;;;;;;;;;;5048923;28;20029;-77
2023/12/14 11:47:52;;;;;;;3.30;0.95;;;;;;;;;;5049701;28;20036;-78
2023/12/14 11:50:18;;;;;;;0.70;0.70;;;;;;;;;;5049476;28;20040;-79
2023/12/14 11:52:44;;;;;;;0.93;0.82;;;;;;;;;;5049350;28;20044;-77
2023/12/14 11:55:14;;;;;;;1.02;0.80;;;;;;;;;;5049186;28;20060;-76
2023/12/14 11:57:39;;;;;;;;;;;;;;;;;;5048756;28;20130;-76
2023/12/14 12:00:06;;;;;;;1.00;0.90;;;;;;;;;;5048020;28;19959;-78
2023/12/14 12:02:32;;;;;;;0.77;0.77;;;;;;;;;;5048322;28;20025;-81
2023/12/14 12:04:58;;;;;;;0.28;0.28;;;;;;;;;;5049319;28;20027;-79
2023/12/14 12:07:23;;;;;;;0.60;0.45;;;;;;;;;;5048055;28;20029;-78
2023/12/14 12:09:49;;;;;;;0.90;0.73;;;;;;;;;;5047957;28;20122;-78
2023/12/14 12:12:14;;;;;;;0.32;0.30;;;;;;;;;;5048041;28;20040;-77
2023/12/14 12:14:41;;;;;;;0.35;0.35;;;;;;;;;;5046203;28;20185;-78
2023/12/14 12:17:07;;;;;;;0.20;0.20;;;;;;;;;;5049611;28;20024;-81
2023/12/14 12:19:37;;;;;;;0.17;0.17;;;;;;;;;;5049386;28;21654;-78
2023/12/14 12:22:03;;;;;;;0.47;0.47;;;;;;;;;;5047816;28;20036;-79
2023/12/14 12:24:29;;;;;;;0.63;0.63;;;;;;;;;;5048807;28;20036;-76
2023/12/14 12:26:55;;;;;;;1.10;0.57;;;;;;;;;;5049159;28;20381;-78
2023/12/14 12:29:21;;;;;;;1.90;0.40;;;;;;;;;;5045493;28;20501;-77
2023/12/14 12:31:47;;;;;;;2.22;0.52;;;;;;;;;;5047313;28;20576;-76
2023/12/14 12:34:12;;;;;;;0.30;0.30;;;;;;;;;;5048773;28;20037;-78
2023/12/14 12:36:38;;;;;;;0.40;0.35;;;;;;;;;;5048766;28;20040;-76
2023/12/14 12:39:05;;;;;;;0.32;0.32;;;;;;;;;;5047336;28;20095;-79
2023/12/14 12:41:32;;;;;;;0.57;0.40;;;;;;;;;;5048572;28;20033;-77
2023/12/14 12:44:05;;;;;;;0.32;0.32;;;;;;;;;;5046272;28;20032;-76
2023/12/14 12:46:35;;;;;;;0.55;0.20;;;;;;;;;;5045407;28;20381;-79
2023/12/14 12:49:04;;;;;;;2.25;1.00;;;;;;;;;;5075990;28;20035;-76
2023/12/14 12:51:31;;;;;;;0.40;0.40;;;;;;;;;;5047200;28;20021;-81
2023/12/14 12:53:58;;;;;;;1.85;0.73;;;;;;;;;;5047305;28;20060;-80
2023/12/14 12:56:25;;;;;;;1.40;0.95;;;;;;;;;;5048704;28;20396;-77
2023/12/14 12:58:53;;;;;;;0.10;0.10;;;;;;;;;;5045767;28;20381;-79
2023/12/14 13:01:19;;;;;;;1.48;0.57;;;;;;;;;;5045520;28;20039;-78
2023/12/14 13:03:44;;;;;;;1.02;1.00;;;;;;;;;;5047264;28;20028;-82
2023/12/14 13:06:10;;;;;;;0.20;0.20;;;;;;;;;;5051217;28;20037;-77
2023/12/14 13:08:35;;;;;;;0.40;0.22;;;;;;;;;;5049123;28;20036;-80
2023/12/14 13:11:00;;;;;;;0.65;0.25;;;;;;;;;;5051354;28;20079;-79
2023/12/14 13:13:26;;;;;;;1.45;0.40;;;;;;;;;;5047289;28;20039;-79
2023/12/14 13:15:52;;;;;;;0.10;0.10;;;;;;;;;;5048881;28;20044;-78
2023/12/14 13:18:17;;;;;;;0.20;0.20;;;;;;;;;;5045809;28;20021;-78
2023/12/14 13:20:43;;;;;;;0.40;0.40;;;;;;;;;;5048337;28;20024;-79
2023/12/14 13:23:08;;;;;;;0.22;0.22;;;;;;;;;;5048539;28;20032;-79
2023/12/14 13:25:34;;;;;;;0.15;0.15;;;;;;;;;;5048335;28;20040;-78
2023/12/14 13:28:00;;;;;;;0.30;0.30;;;;;;;;;;5046805;28;20446;-79
2023/12/14 13:30:26;;;;;;;0.63;0.55;;;;;;;;;;5048891;28;20086;-79
2023/12/14 13:32:53;;;;;;;0.17;0.17;;;;;;;;;;5048720;28;20418;-80
2023/12/14 13:35:19;;;;;;;1.27;0.80;;;;;;;;;;5048297;28;20760;-79
2023/12/14 13:37:44;;;;;;;0.10;0.10;;;;;;;;;;5046870;28;20091;-80
2023/12/14 13:40:10;;;;;;;0.10;0.10;;;;;;;;;;5048194;28;20079;-80
2023/12/14 13:42:36;;;;;;;0.20;0.20;;;;;;;;;;5048188;28;20057;-78
2023/12/14 13:45:01;;;;;;;0.55;0.43;;;;;;;;;;5043339;28;20155;-79
2023/12/14 13:47:27;;;;;;;0.30;0.30;;;;;;;;;;5046298;28;20032;-79
2023/12/14 13:49:53;;;;;;;0.30;0.30;;;;;;;;;;5044172;28;20100;-82
2023/12/14 13:52:18;;;;;;;0.15;0.15;;;;;;;;;;5045596;28;20029;-77
2023/12/14 13:54:44;;;;;;;1.83;1.15;;;;;;;;;;5044188;28;20033;-78
2023/12/14 13:57:09;;;;;;;0.60;0.60;;;;;;;;;;5044763;28;20367;-78
2023/12/14 13:59:34;;;;;;;0.75;0.75;;;;;;;;;;5044763;28;20488;-78
2023/12/14 14:02:00;;;;;;;0.90;0.50;;;;;;;;;;5044447;28;20021;-79
2023/12/14 14:04:25;;;;;;;0.77;0.77;;;;;;;;;;5045478;28;20032;-79
2023/12/14 14:06:50;;;;;;;1.00;0.52;;;;;;;;;;5046603;28;20029;-78
2023/12/14 14:09:16;;;;;;;0.40;0.13;;;;;;;;;;5047116;28;20458;-80
2023/12/14 14:11:47;;;;;;;0.45;0.22;;;;;;;;;;5051583;28;20074;-78
2023/12/14 14:14:12;;;;;;;0.70;0.70;;;;;;;;;;5050709;28;20047;-77
2023/12/14 14:16:38;;;;;;;0.55;0.40;;;;;;;;;;5047659;28;20135;-78
2023/12/14 14:19:04;;;;;;;1.05;0.93;;;;;;;;;;5049418;28;20766;-81
2023/12/14 14:21:32;;;;;;;1.65;0.98;;;;;;;;;;5049506;28;20047;-77
2023/12/14 14:23:57;;;;;;;2.03;1.85;;;;;;;;;;5049329;28;20057;-78
2023/12/14 14:26:23;;;;;;;1.48;0.80;;;;;;;;;;5048325;28;20060;-78
2023/12/14 14:28:48;;;;;;;0.47;0.32;;;;;;;;;;5047318;28;20774;-77
2023/12/14 14:31:14;;;;;;;0.70;0.57;;;;;;;;;;5051485;28;20111;-78
2023/12/14 14:33:39;;;;;;;0.15;0.15;;;;;;;;;;5051148;28;20437;-79
2023/12/14 14:36:05;;;;;;;0.15;0.15;;;;;;;;;;5051260;28;20021;-78
2023/12/14 14:38:33;;;;;;;0.20;0.20;;;;;;;;;;5046808;28;20025;-79
2023/12/14 14:40:59;;;;;;;1.98;0.40;;;;;;;;;;5051697;28;20108;-77
2023/12/14 14:43:24;;;;;;;0.10;0.10;;;;;;;;;;5049391;28;20100;-79
2023/12/14 14:45:49;;;;;;;0.10;0.10;;;;;;;;;;5046916;28;20535;-80
2023/12/14 14:48:15;;;;;;;0.80;0.80;;;;;;;;;;5051014;28;20036;-77
2023/12/14 14:50:40;;;;;;;0.38;0.25;;;;;;;;;;5049229;28;20190;-79
2023/12/14 14:53:06;;;;;;;0.93;0.88;;;;;;;;;;5050761;28;20385;-78
2023/12/14 14:55:32;;;;;;;0.20;0.20;;;;;;;;;;5051026;28;20346;-80
2023/12/14 14:57:58;;;;;;;0.80;0.28;;;;;;;;;;5050374;28;20045;-81
2023/12/14 15:00:23;;;;;;;0.85;0.20;;;;;;;;;;5048926;28;20033;-79